createdAt,value
2022-12-24T00:01:06.865Z,10.28
2022-12-24T00:03:34.089Z,10.31
2022-12-24T00:06:08.024Z,10.27
2022-12-24T00:08:35.309Z,10.33
2022-12-24T00:11:01.938Z,10.33
2022-12-24T00:13:28.474Z,10.35
2022-12-24T00:15:54.872Z,10.36
2022-12-24T00:18:21.259Z,10.38
2022-12-24T00:20:51.072Z,10.41
2022-12-24T00:23:18.095Z,10.46
2022-12-24T00:25:45.352Z,10.41
2022-12-24T00:28:12.601Z,10.47
2022-12-24T00:30:42.924Z,10.50
2022-12-24T00:33:12.210Z,10.45
2022-12-24T00:35:39.778Z,10.48
2022-12-24T00:38:07.259Z,10.52
2022-12-24T00:40:36.817Z,10.47
2022-12-24T00:43:03.452Z,10.45
2022-12-24T00:45:32.291Z,10.38
2022-12-24T00:47:59.195Z,10.37
2022-12-24T00:50:25.915Z,10.31
2022-12-24T00:52:52.304Z,10.30
2022-12-24T00:55:19.500Z,10.23
2022-12-24T00:57:46.167Z,10.20
2022-12-24T01:00:13.337Z,10.12
2022-12-24T01:02:44.960Z,10.04
2022-12-24T01:05:12.386Z,10.00
2022-12-24T01:07:44.624Z,9.96
2022-12-24T01:10:11.923Z,9.91
2022-12-24T01:12:41.084Z,9.89
2022-12-24T01:15:11.179Z,9.80
2022-12-24T01:17:40.296Z,9.76
2022-12-24T01:20:09.094Z,9.73
2022-12-24T01:22:35.823Z,9.70
2022-12-24T01:25:09.424Z,9.66
2022-12-24T01:27:38.535Z,9.77
2022-12-24T01:30:07.397Z,9.62
2022-12-24T01:32:34.143Z,9.60
2022-12-24T01:35:00.684Z,9.59
2022-12-24T01:37:27.074Z,9.56
2022-12-24T01:40:13.445Z,9.53
2022-12-24T01:43:03.909Z,9.49
2022-12-24T01:45:53.293Z,9.54
2022-12-24T01:48:35.755Z,9.49
2022-12-24T01:51:14.384Z,9.43
2022-12-24T01:53:45.239Z,9.34
2022-12-24T01:56:13.037Z,9.32
2022-12-24T01:58:42.000Z,9.25
2022-12-24T02:01:09.315Z,9.21
2022-12-24T02:07:34.099Z,9.07
2022-12-24T02:10:02.049Z,9.03
2022-12-24T02:12:31.979Z,9.00
2022-12-24T02:14:59.517Z,9.04
2022-12-24T02:17:38.358Z,9.04
2022-12-24T02:20:13.615Z,9.10
2022-12-24T02:23:14.004Z,9.10
2022-12-24T02:25:49.271Z,9.11
2022-12-24T02:28:36.812Z,9.12
2022-12-24T02:31:15.176Z,9.14
2022-12-24T02:33:56.746Z,9.09
2022-12-24T02:36:33.493Z,9.08
2022-12-24T02:39:10.501Z,9.03
2022-12-24T02:42:02.370Z,8.99
2022-12-24T02:44:32.139Z,9.00
2022-12-24T02:47:00.680Z,9.15
2022-12-24T02:49:27.090Z,9.18
2022-12-24T02:51:53.492Z,9.27
2022-12-24T02:54:20.253Z,9.31
2022-12-24T02:57:00.663Z,9.33
2022-12-24T02:59:35.153Z,9.37
2022-12-24T03:02:07.352Z,9.36
2022-12-24T03:04:54.217Z,9.36
2022-12-24T03:07:26.242Z,9.41
2022-12-24T03:10:10.913Z,9.38
2022-12-24T03:12:46.942Z,9.39
2022-12-24T03:15:17.370Z,9.41
2022-12-24T03:17:47.735Z,9.43
2022-12-24T03:20:20.686Z,9.39
2022-12-24T03:22:47.272Z,9.33
2022-12-24T03:25:16.619Z,9.29
2022-12-24T03:27:44.051Z,9.28
2022-12-24T03:30:13.715Z,9.19
2022-12-24T03:32:40.705Z,9.11
2022-12-24T03:35:08.580Z,9.05
2022-12-24T03:37:35.015Z,9.03
2022-12-24T03:40:04.005Z,9.03
2022-12-24T03:42:33.030Z,9.03
2022-12-24T03:44:59.388Z,9.09
2022-12-24T03:47:25.796Z,9.07
2022-12-24T03:49:52.195Z,9.13
2022-12-24T03:52:18.548Z,9.16
2022-12-24T03:54:44.965Z,9.18
2022-12-24T03:57:11.326Z,9.21
2022-12-24T03:59:37.756Z,9.27
2022-12-24T04:02:22.811Z,9.33
2022-12-24T04:04:49.374Z,9.41
2022-12-24T04:07:15.710Z,9.43
2022-12-24T04:09:42.436Z,9.51
2022-12-24T04:12:08.834Z,9.54
2022-12-24T04:14:37.350Z,9.55
2022-12-24T04:17:06.887Z,9.58
2022-12-24T04:19:33.289Z,9.61
2022-12-24T04:22:02.005Z,9.57
2022-12-24T04:24:28.749Z,9.58
2022-12-24T04:26:55.217Z,9.58
2022-12-24T04:29:21.615Z,9.55
2022-12-24T04:31:48.042Z,9.58
2022-12-24T04:34:14.497Z,9.57
2022-12-24T04:36:40.890Z,9.59
2022-12-24T04:39:09.843Z,9.69
2022-12-24T04:41:40.907Z,9.69
2022-12-24T04:44:08.607Z,9.82
2022-12-24T04:46:35.734Z,9.78
2022-12-24T04:49:02.181Z,9.78
2022-12-24T04:51:29.213Z,9.80
2022-12-24T04:53:56.622Z,9.77
2022-12-24T04:56:29.827Z,9.79
2022-12-24T04:58:56.711Z,9.77
2022-12-24T05:01:26.326Z,9.74
2022-12-24T05:03:56.383Z,9.73
2022-12-24T05:06:26.848Z,9.75
2022-12-24T05:08:59.549Z,9.71
2022-12-24T05:11:26.572Z,9.68
2022-12-24T05:13:53.109Z,9.64
2022-12-24T05:16:21.309Z,9.58
2022-12-24T05:18:50.848Z,9.65
2022-12-24T05:21:22.685Z,9.55
2022-12-24T05:24:08.416Z,9.62
2022-12-24T05:26:40.537Z,9.64
2022-12-24T05:29:09.260Z,9.60
2022-12-24T05:31:36.140Z,9.63
2022-12-24T05:34:03.261Z,9.71
2022-12-24T05:36:29.805Z,9.73
2022-12-24T05:38:56.662Z,9.66
2022-12-24T05:41:23.689Z,9.66
2022-12-24T05:43:50.675Z,9.68
2022-12-24T05:46:19.188Z,9.81
2022-12-24T05:48:46.709Z,9.79
2022-12-24T05:51:14.546Z,9.75
2022-12-24T05:53:41.822Z,9.71
2022-12-24T05:56:14.257Z,9.73
2022-12-24T05:58:41.580Z,9.71
2022-12-24T06:01:09.422Z,9.64
2022-12-24T06:03:36.968Z,9.60
2022-12-24T06:06:06.614Z,9.62
2022-12-24T06:08:36.873Z,9.63
2022-12-24T06:11:06.538Z,9.67
2022-12-24T06:13:33.607Z,9.61
2022-12-24T06:16:02.482Z,9.59
2022-12-24T06:18:30.345Z,9.54
2022-12-24T06:20:57.592Z,9.58
2022-12-24T06:23:25.195Z,9.58
2022-12-24T06:25:52.029Z,9.61
2022-12-24T06:28:18.683Z,9.55
2022-12-24T06:30:57.157Z,9.54
2022-12-24T06:33:27.355Z,9.52
2022-12-24T06:35:53.779Z,9.53
2022-12-24T06:38:20.419Z,9.52
2022-12-24T06:40:47.453Z,9.53
2022-12-24T06:43:17.042Z,9.49
2022-12-24T06:45:47.885Z,9.44
2022-12-24T06:48:17.381Z,9.36
2022-12-24T06:50:43.761Z,9.48
2022-12-24T06:53:10.682Z,9.48
2022-12-24T06:55:37.305Z,9.44
2022-12-24T06:58:06.270Z,9.47
2022-12-24T07:00:32.734Z,9.44
2022-12-24T07:02:59.381Z,9.37
2022-12-24T07:05:29.219Z,9.33
2022-12-24T07:07:55.807Z,9.36
2022-12-24T07:10:23.235Z,9.35
2022-12-24T07:12:49.633Z,9.38
2022-12-24T07:15:16.848Z,9.29
2022-12-24T07:17:43.496Z,9.26
2022-12-24T07:20:15.312Z,9.17
2022-12-24T07:22:42.499Z,9.16
2022-12-24T07:25:09.692Z,9.08
2022-12-24T07:27:36.838Z,9.04
2022-12-24T07:30:04.071Z,9.06
2022-12-24T07:32:30.617Z,9.04
2022-12-24T07:34:57.133Z,9.07
2022-12-24T07:37:25.739Z,9.05
2022-12-24T07:39:54.715Z,9.01
2022-12-24T07:42:23.678Z,8.99
2022-12-24T07:44:50.649Z,9.02
2022-12-24T07:47:17.097Z,9.07
2022-12-24T07:49:43.636Z,9.04
2022-12-24T07:52:10.059Z,9.07
2022-12-24T07:54:36.457Z,9.03
2022-12-24T07:57:05.178Z,9.03
2022-12-24T07:59:31.571Z,9.09
2022-12-24T08:01:58.420Z,9.10
2022-12-24T08:04:25.179Z,9.09
2022-12-24T08:06:53.942Z,9.14
2022-12-24T08:09:22.888Z,9.15
2022-12-24T08:11:52.179Z,9.16
2022-12-24T08:14:19.175Z,9.12
2022-12-24T08:16:45.611Z,9.17
2022-12-24T08:19:12.032Z,9.17
2022-12-24T08:21:40.775Z,9.22
2022-12-24T08:24:07.257Z,9.27
2022-12-24T08:26:33.645Z,9.33
2022-12-24T08:29:00.111Z,9.36
2022-12-24T08:31:26.700Z,9.44
2022-12-24T08:33:58.179Z,9.50
2022-12-24T08:36:24.522Z,9.55
2022-12-24T08:38:53.850Z,9.65
2022-12-24T08:41:20.240Z,9.65
2022-12-24T08:43:46.703Z,9.70
2022-12-24T08:46:13.157Z,9.85
2022-12-24T08:48:39.654Z,9.99
2022-12-24T08:51:10.532Z,10.06
2022-12-24T08:53:38.148Z,10.07
2022-12-24T08:56:06.824Z,10.10
2022-12-24T08:58:33.496Z,10.09
2022-12-24T09:01:00.287Z,10.05
2022-12-24T09:03:28.102Z,10.08
2022-12-24T09:05:55.067Z,10.09
2022-12-24T09:08:21.653Z,10.15
2022-12-24T09:10:48.133Z,10.23
2022-12-24T09:13:14.558Z,10.22
2022-12-24T09:15:40.965Z,10.22
2022-12-24T09:18:07.518Z,10.18
2022-12-24T09:20:36.227Z,10.13
2022-12-24T09:23:02.709Z,10.13
2022-12-24T09:25:29.178Z,10.17
2022-12-24T09:27:55.552Z,10.15
2022-12-24T09:30:22.191Z,10.22
2022-12-24T09:32:51.390Z,10.30
2022-12-24T09:35:17.805Z,10.35
2022-12-24T09:37:46.971Z,10.42
2022-12-24T09:40:27.400Z,10.42
2022-12-24T09:42:54.801Z,10.49
2022-12-24T09:45:33.035Z,10.51
2022-12-24T09:48:03.710Z,10.60
2022-12-24T09:50:41.247Z,10.71
2022-12-24T09:53:23.459Z,10.77
2022-12-24T09:55:54.466Z,10.88
2022-12-24T09:58:41.328Z,11.01
2022-12-24T10:01:13.192Z,11.18
2022-12-24T10:03:43.845Z,11.22
2022-12-24T10:06:24.985Z,11.23
2022-12-24T10:09:30.896Z,11.29
2022-12-24T10:12:03.230Z,11.35
2022-12-24T10:14:43.677Z,11.47
2022-12-24T10:17:52.282Z,11.55
2022-12-24T10:20:56.171Z,11.76
2022-12-24T10:24:04.486Z,12.00
2022-12-24T10:26:39.189Z,12.22
2022-12-24T10:29:14.374Z,12.32
2022-12-24T10:31:50.090Z,12.38
2022-12-24T10:34:22.605Z,12.47
2022-12-24T10:36:51.446Z,12.43
2022-12-24T10:39:25.809Z,12.53
2022-12-24T10:41:55.322Z,12.58
2022-12-24T10:44:25.810Z,12.61
2022-12-24T10:46:52.358Z,12.59
2022-12-24T10:49:44.071Z,12.57
2022-12-24T10:52:13.251Z,12.71
2022-12-24T10:55:08.118Z,12.83
2022-12-24T10:57:35.366Z,12.89
2022-12-24T11:00:04.300Z,12.92
2022-12-24T11:02:37.329Z,12.85
2022-12-24T11:05:30.891Z,12.72
2022-12-24T11:08:20.410Z,12.61
2022-12-24T11:10:59.011Z,12.46
2022-12-24T11:13:40.968Z,12.35
2022-12-24T11:16:10.157Z,12.33
2022-12-24T11:18:50.512Z,12.23
2022-12-24T11:21:34.251Z,12.23
2022-12-24T11:24:03.132Z,12.21
2022-12-24T11:26:30.826Z,12.15
2022-12-24T11:29:18.663Z,12.06
2022-12-24T11:31:46.040Z,11.91
2022-12-24T11:34:22.278Z,11.83
2022-12-24T11:36:56.826Z,11.82
2022-12-24T11:39:25.975Z,11.82
2022-12-24T11:41:55.851Z,11.94
2022-12-24T11:44:27.592Z,12.01
2022-12-24T11:46:59.063Z,12.08
2022-12-24T11:49:28.654Z,12.19
2022-12-24T11:52:10.176Z,12.22
2022-12-24T11:54:53.291Z,12.31
2022-12-24T11:57:25.150Z,12.32
2022-12-24T11:59:54.174Z,12.35
2022-12-24T12:02:28.318Z,12.37
2022-12-24T12:05:03.199Z,12.41
2022-12-24T12:07:36.768Z,12.40
2022-12-24T12:10:07.867Z,12.41
2022-12-24T12:12:41.685Z,12.44
2022-12-24T12:15:19.081Z,12.53
2022-12-24T12:17:54.724Z,12.62
2022-12-24T12:20:33.406Z,12.76
2022-12-24T12:23:30.484Z,12.76
2022-12-24T12:26:28.785Z,12.65
2022-12-24T12:29:03.963Z,12.54
2022-12-24T12:31:36.561Z,12.45
2022-12-24T12:34:12.072Z,12.37
2022-12-24T12:37:14.901Z,12.34
2022-12-24T12:39:42.333Z,12.22
2022-12-24T12:42:15.080Z,12.17
2022-12-24T12:44:59.939Z,12.18
2022-12-24T12:47:56.017Z,12.22
2022-12-24T12:51:03.638Z,12.30
2022-12-24T12:53:40.589Z,12.36
2022-12-24T12:56:25.629Z,12.41
2022-12-24T12:59:07.644Z,12.38
2022-12-24T13:01:47.051Z,12.38
2022-12-24T13:04:39.833Z,12.43
2022-12-24T13:07:24.410Z,12.42
2022-12-24T13:10:03.108Z,12.40
2022-12-24T13:12:56.571Z,12.34
2022-12-24T13:15:46.929Z,12.29
2022-12-24T13:18:31.650Z,12.22
2022-12-24T13:20:58.224Z,12.19
2022-12-24T13:23:26.499Z,12.16
2022-12-24T13:25:56.235Z,12.08
2022-12-24T13:28:24.781Z,12.05
2022-12-24T13:31:24.421Z,12.01
2022-12-24T13:33:57.019Z,11.94
2022-12-24T13:36:23.939Z,11.87
2022-12-24T13:38:57.258Z,11.79
2022-12-24T13:41:41.403Z,11.71
2022-12-24T13:44:17.506Z,11.64
2022-12-24T13:47:03.248Z,11.55
2022-12-24T13:49:37.420Z,11.49
2022-12-24T13:52:15.313Z,11.43
2022-12-24T13:54:46.041Z,11.37
2022-12-24T13:57:33.892Z,11.32
2022-12-24T14:00:22.658Z,11.28
2022-12-24T14:02:55.344Z,11.24
2022-12-24T14:05:32.208Z,11.19
2022-12-24T14:08:01.838Z,11.14
2022-12-24T14:10:39.024Z,11.12
2022-12-24T14:13:09.921Z,11.08
2022-12-24T14:15:48.464Z,11.04
2022-12-24T14:18:24.524Z,11.02
2022-12-24T14:20:53.026Z,10.99
2022-12-24T14:23:31.615Z,10.96
2022-12-24T14:26:00.686Z,10.93
2022-12-24T14:28:34.767Z,10.91
2022-12-24T14:31:05.743Z,10.91
2022-12-24T14:33:34.571Z,10.94
2022-12-24T14:36:02.509Z,10.94
2022-12-24T14:38:35.601Z,10.97
2022-12-24T14:41:28.424Z,10.92
2022-12-24T14:44:21.768Z,10.87
2022-12-24T14:46:58.769Z,10.78
2022-12-24T14:49:55.361Z,10.68
2022-12-24T14:55:50.947Z,10.49
2022-12-24T14:58:36.328Z,10.39
2022-12-24T15:01:23.333Z,10.29
2022-12-24T15:04:14.029Z,10.16
2022-12-24T15:06:43.379Z,10.08
2022-12-24T15:09:21.142Z,10.00
2022-12-24T15:11:54.082Z,9.93
2022-12-24T15:14:27.608Z,9.84
2022-12-24T15:17:00.757Z,9.79
2022-12-24T15:19:40.307Z,9.74
2022-12-24T15:22:23.357Z,9.68
2022-12-24T15:24:49.886Z,9.68
2022-12-24T15:27:19.730Z,9.65
2022-12-24T15:29:49.035Z,9.63
2022-12-24T15:32:19.979Z,9.65
2022-12-24T15:34:48.843Z,9.70
2022-12-24T15:37:21.400Z,9.62
2022-12-24T15:39:59.498Z,9.66
2022-12-24T15:42:27.714Z,9.61
2022-12-24T15:44:57.281Z,9.54
2022-12-24T15:47:29.966Z,9.60
2022-12-24T15:49:56.951Z,9.57
2022-12-24T15:52:25.365Z,9.48
2022-12-24T15:54:57.661Z,9.63
2022-12-24T15:57:29.670Z,9.56
2022-12-24T15:59:58.096Z,9.73
2022-12-24T16:02:39.976Z,9.60
2022-12-24T16:05:21.758Z,9.58
2022-12-24T16:08:09.577Z,9.52
2022-12-24T16:11:08.389Z,9.46
2022-12-24T16:13:43.121Z,9.42
2022-12-24T16:16:13.061Z,9.38
2022-12-24T16:18:46.829Z,9.34
2022-12-24T16:21:28.697Z,9.31
2022-12-24T16:23:57.677Z,9.28
2022-12-24T16:26:24.410Z,9.25
2022-12-24T16:28:50.914Z,9.22
2022-12-24T16:31:20.142Z,9.25
2022-12-24T16:33:47.187Z,9.24
2022-12-24T16:36:14.724Z,9.21
2022-12-24T16:38:59.849Z,9.31
2022-12-24T16:41:26.243Z,9.39
2022-12-24T16:43:52.609Z,9.41
2022-12-24T16:46:19.186Z,9.41
2022-12-24T16:48:48.253Z,9.44
2022-12-24T16:51:14.715Z,9.46
2022-12-24T16:53:41.284Z,9.40
2022-12-24T16:56:07.901Z,9.42
2022-12-24T16:58:34.987Z,9.39
2022-12-24T17:01:07.807Z,9.35
2022-12-24T17:03:35.308Z,9.38
2022-12-24T17:06:05.809Z,9.34
2022-12-24T17:08:34.426Z,9.31
2022-12-24T17:11:06.108Z,9.31
2022-12-24T17:13:32.488Z,9.29
2022-12-24T17:16:01.253Z,9.29
2022-12-24T17:18:27.645Z,9.32
2022-12-24T17:21:01.082Z,9.32
2022-12-24T17:23:27.959Z,9.33
2022-12-24T17:25:54.342Z,9.31
2022-12-24T17:28:21.547Z,9.24
2022-12-24T17:30:48.054Z,9.26
2022-12-24T17:33:15.194Z,9.20
2022-12-24T17:35:42.848Z,9.19
2022-12-24T17:38:09.706Z,9.18
2022-12-24T17:40:38.785Z,9.18
2022-12-24T17:43:07.417Z,9.14
2022-12-24T17:45:33.757Z,9.17
2022-12-24T17:48:00.147Z,9.11
2022-12-24T17:50:27.923Z,9.11
2022-12-24T17:52:54.295Z,9.14
2022-12-24T17:55:22.521Z,9.21
2022-12-24T17:57:49.166Z,9.22
2022-12-24T18:00:16.467Z,9.20
2022-12-24T18:02:43.038Z,9.25
2022-12-24T18:05:09.760Z,9.23
2022-12-24T18:07:36.275Z,9.27
2022-12-24T18:10:04.637Z,9.29
2022-12-24T18:12:31.130Z,9.26
2022-12-24T18:14:57.647Z,9.34
2022-12-24T18:17:24.280Z,9.29
2022-12-24T18:19:50.965Z,9.33
2022-12-24T18:22:17.378Z,9.37
2022-12-24T18:24:46.264Z,9.30
2022-12-24T18:27:12.611Z,9.25
2022-12-24T18:29:41.512Z,9.26
2022-12-24T18:32:08.630Z,9.27
2022-12-24T18:34:38.679Z,9.30
2022-12-24T18:37:05.080Z,9.27
2022-12-24T18:39:31.539Z,9.27
2022-12-24T18:41:57.917Z,9.30
2022-12-24T18:44:26.649Z,9.29
2022-12-24T18:46:56.263Z,9.31
2022-12-24T18:49:22.767Z,9.37
2022-12-24T18:51:49.251Z,9.37
2022-12-24T18:54:15.607Z,9.36
2022-12-24T18:56:42.070Z,9.40
2022-12-24T18:59:09.605Z,9.37
2022-12-24T19:01:36.371Z,9.36
2022-12-24T19:04:05.324Z,9.35
2022-12-24T19:06:31.774Z,9.42
2022-12-24T19:09:00.200Z,9.40
2022-12-24T19:11:29.844Z,9.38
2022-12-24T19:13:57.904Z,9.36
2022-12-24T19:16:24.839Z,9.32
2022-12-24T19:18:56.274Z,9.30
2022-12-24T19:21:22.884Z,9.30
2022-12-24T19:23:51.991Z,9.30
2022-12-24T19:26:19.813Z,9.31
2022-12-24T19:28:48.434Z,9.37
2022-12-24T19:31:18.825Z,9.32
2022-12-24T19:33:48.166Z,9.38
2022-12-24T19:36:19.481Z,9.36
2022-12-24T19:38:46.069Z,9.38
2022-12-24T19:41:18.902Z,9.36
2022-12-24T19:43:48.067Z,9.42
2022-12-24T19:46:17.408Z,9.39
2022-12-24T19:48:50.071Z,9.36
2022-12-24T19:51:17.707Z,9.36
2022-12-24T19:53:47.828Z,9.38
2022-12-24T19:56:16.818Z,9.40
2022-12-24T19:58:44.474Z,9.39
2022-12-24T20:01:16.050Z,9.40
2022-12-24T20:03:43.805Z,9.40
2022-12-24T20:06:10.836Z,9.42
2022-12-24T20:08:37.998Z,9.40
2022-12-24T20:11:07.403Z,9.44
2022-12-24T20:13:34.846Z,9.40
2022-12-24T20:16:06.843Z,9.45
2022-12-24T20:18:38.263Z,9.42
2022-12-24T20:21:08.727Z,9.44
2022-12-24T20:23:39.896Z,9.44
2022-12-24T20:26:07.788Z,9.42
2022-12-24T20:28:36.404Z,9.44
2022-12-24T20:31:20.302Z,9.45
2022-12-24T20:33:49.362Z,9.44
2022-12-24T20:36:18.224Z,9.41
2022-12-24T20:38:45.349Z,9.44
2022-12-24T20:41:14.733Z,9.45
2022-12-24T20:43:47.915Z,9.44
2022-12-24T20:46:21.700Z,9.42
2022-12-24T20:48:48.795Z,9.43
2022-12-24T20:51:23.765Z,9.42
2022-12-24T20:53:53.264Z,9.43
2022-12-24T20:56:22.559Z,9.47
2022-12-24T20:58:49.218Z,9.47
2022-12-24T21:01:19.377Z,9.48
2022-12-24T21:03:46.345Z,9.49
2022-12-24T21:06:13.745Z,9.47
2022-12-24T21:08:40.153Z,9.49
2022-12-24T21:11:25.058Z,9.45
2022-12-24T21:13:51.563Z,9.45
2022-12-24T21:16:17.979Z,9.40
2022-12-24T21:18:44.376Z,9.41
2022-12-24T21:21:15.597Z,9.44
2022-12-24T21:23:42.180Z,9.43
2022-12-24T21:26:08.672Z,9.43
2022-12-24T21:28:35.156Z,9.42
2022-12-24T21:31:01.765Z,9.44
2022-12-24T21:33:32.060Z,9.42
2022-12-24T21:36:02.862Z,9.39
2022-12-24T21:38:29.267Z,9.38
2022-12-24T21:41:16.527Z,9.37
2022-12-24T21:43:43.641Z,9.36
2022-12-24T21:46:13.046Z,9.36
2022-12-24T21:48:59.082Z,9.33
2022-12-24T21:51:26.882Z,9.32
2022-12-24T21:54:12.379Z,9.32
2022-12-24T21:57:04.862Z,9.32
2022-12-24T21:59:31.351Z,9.33
2022-12-24T22:01:58.457Z,9.38
2022-12-24T22:04:25.306Z,9.37
2022-12-24T22:07:13.154Z,9.41
2022-12-24T22:09:58.839Z,9.42
2022-12-24T22:12:29.443Z,9.43
2022-12-24T22:14:55.897Z,9.46
2022-12-24T22:17:25.783Z,9.48
2022-12-24T22:19:53.545Z,9.51
2022-12-24T22:22:23.330Z,9.50
2022-12-24T22:24:49.832Z,9.53
2022-12-24T22:27:18.409Z,9.55
2022-12-24T22:29:47.169Z,9.57
2022-12-24T22:32:16.095Z,9.62
2022-12-24T22:34:43.579Z,9.61
2022-12-24T22:37:10.056Z,9.61
2022-12-24T22:39:36.706Z,9.61
2022-12-24T22:42:07.950Z,9.58
2022-12-24T22:44:34.593Z,9.58
2022-12-24T22:47:01.016Z,9.57
2022-12-24T22:49:30.526Z,9.54
2022-12-24T22:52:00.647Z,9.54
2022-12-24T22:54:27.165Z,9.52
2022-12-24T22:56:53.885Z,9.48
2022-12-24T22:59:20.275Z,9.45
2022-12-24T23:01:47.708Z,9.42
2022-12-24T23:04:14.428Z,9.37
2022-12-24T23:06:41.753Z,9.35
2022-12-24T23:09:16.670Z,9.33
2022-12-24T23:11:44.084Z,9.34
2022-12-24T23:14:34.661Z,9.34
2022-12-24T23:17:04.232Z,9.35
2022-12-24T23:19:31.967Z,9.35
2022-12-24T23:22:01.679Z,9.35
2022-12-24T23:24:28.411Z,9.34
2022-12-24T23:26:55.682Z,9.32
2022-12-24T23:29:22.301Z,9.30
2022-12-24T23:31:51.141Z,9.29
2022-12-24T23:34:17.611Z,9.31
2022-12-24T23:36:44.141Z,9.29
2022-12-24T23:39:10.580Z,9.28
2022-12-24T23:41:37.103Z,9.28
2022-12-24T23:44:04.500Z,9.30
2022-12-24T23:46:31.034Z,9.29
2022-12-24T23:48:57.514Z,9.26
2022-12-24T23:51:26.517Z,9.27
2022-12-24T23:53:56.572Z,9.27
2022-12-24T23:56:25.078Z,9.30
2022-12-24T23:58:51.988Z,9.29
